Honghai — XUBU8 — position and weather

sailwx.info

Track history (hours):
 
Tides and Currents Weather Stations Pressure Air Temp Water Temp Dewpoint Dewpoint Depression Visibility Wind Speed Wind Dir Waves Ship Positions

Honghai

Last reported at 2016-Jun-26 21:05 UTC. Time now 2016-Jun-27 02:24 UTC.
Position N 37°48' E 122°22'.

Length 72 m; draft 4 m.

Type: Cargo ship. MMSI: 515501000.

Date/timePositionNaut miles runAvg speedWind from/ knotsBaromVisibWave heightAir tempDewpointWater temp
2016-Jun-26 21:05N 37°48' E 122°22'4 7.9
2016-Jun-26 20:32N 37°46' E 122°26'17 7.6
2016-Jun-26 18:14N 37°35' E 122°44'6 8.3
2016-Jun-26 17:32N 37°30' E 122°48'9 8.9
2016-Jun-26 16:33N 37°22' E 122°52'2110.5
2016-Jun-26 14:32N 37°01' E 122°52'1010.5
2016-Jun-26 13:33N 36°50' E 122°52'1010.0
2016-Jun-26 12:33N 36°41' E 122°52'10 9.5
2016-Jun-26 11:33N 36°31' E 122°52'9 9.2
2016-Jun-26 10:33N 36°22' E 122°53'12 9.3
2016-Jun-26 09:19N 36°10' E 122°53'16 9.2
2016-Jun-26 07:31N 35°54' E 122°53'385 8.4
2016-Jun-24 09:29N 29°30' E 122°28'  
2016-Jun-17 02:34N 35°14' E 139°46'8 8.5
2016-Jun-17 01:33N 35°22' E 139°43'8 8.4
2016-Jun-17 00:34N 35°28' E 139°50'9 8.9
2016-Jun-16 23:33N 35°34' E 139°58'2 1.7
2016-Jun-16 22:28N 35°35' E 139°59'0 0.0
2016-Jun-16 21:16N 35°35' E 139°60'  
Track history (hours):
 
Tides and Currents Weather Stations Pressure Air Temp Water Temp Dewpoint Dewpoint Depression Visibility Wind Speed Wind Dir Waves Ship Positions

Honghai

Last reported at 2016-Jun-26 21:05 UTC. Time now 2016-Jun-27 02:24 UTC.
Position N 37°48' E 122°22'.

Length 72 m; draft 4 m.

Type: Cargo ship. MMSI: 515501000.

Date/timePositionNaut miles runAvg speedWind from/ knotsBaromVisibWave heightAir tempDewpointWater temp
2016-Jun-26 21:05N 37°48' E 122°22'4 7.9
2016-Jun-26 20:32N 37°46' E 122°26'17 7.6
2016-Jun-26 18:14N 37°35' E 122°44'6 8.3
2016-Jun-26 17:32N 37°30' E 122°48'9 8.9
2016-Jun-26 16:33N 37°22' E 122°52'2110.5
2016-Jun-26 14:32N 37°01' E 122°52'1010.5
2016-Jun-26 13:33N 36°50' E 122°52'1010.0
2016-Jun-26 12:33N 36°41' E 122°52'10 9.5
2016-Jun-26 11:33N 36°31' E 122°52'9 9.2
2016-Jun-26 10:33N 36°22' E 122°53'12 9.3
2016-Jun-26 09:19N 36°10' E 122°53'16 9.2
2016-Jun-26 07:31N 35°54' E 122°53'385 8.4
2016-Jun-24 09:29N 29°30' E 122°28'  
2016-Jun-17 02:34N 35°14' E 139°46'8 8.5
2016-Jun-17 01:33N 35°22' E 139°43'8 8.4
2016-Jun-17 00:34N 35°28' E 139°50'9 8.9
2016-Jun-16 23:33N 35°34' E 139°58'2 1.7
2016-Jun-16 22:28N 35°35' E 139°59'0 0.0
2016-Jun-16 21:16N 35°35' E 139°60'  

Dump ship's entire track history